^^
Saratoga-Weather Station Historical Data
Daily Summary for February 14, 2021 Units:  English    Metric   Both
Daily Weekly Monthly Yearly Custom
  High: Low: Average:
Temperature: 43 °F 37.9 °F 40.8 °F
Dew Point: 42.3 °F 37.2 °F 39.9 °F
Humidity: 98% 94% 96%
Wind Speed: 4mph 0mph 0.8mph
Wind Gust: 7mph - -
Wind- - SSW
Pressure: 30.4 in 30.3 in -
Precipitation: 0 in    
Historical Graphs
 
 
Tabular Data for February 14, 2021
Time Temperature Dew Point Pressure Wind Wind Speed Wind Gust Humidity Rainfall Rate (Hourly) solar
00:00 43 °F 41.9 °F 30.3 in ESE 0.9 mph 3 mph 96% 0 in 0 W/m2
00:05 43 °F 42.3 °F 30.3 in ESE 0.9 mph 2 mph 97% 0 in 0 W/m2
00:10 42.8 °F 42.1 °F 30.3 in ESE 0.9 mph 2 mph 97% 0 in 0 W/m2
00:15 42.8 °F 42.1 °F 30.3 in ESE 2 mph 2 mph 97% 0 in 0 W/m2
00:20 42.8 °F 42.1 °F 30.3 in ESE 0.9 mph 2 mph 97% 0 in 0 W/m2
00:25 42.8 °F 42.1 °F 30.3 in ESE 0.9 mph 2 mph 97% 0 in 0 W/m2
00:30 42.8 °F 42.1 °F 30.3 in ESE 2 mph 4 mph 97% 0 in 0 W/m2
00:35 42.6 °F 41.5 °F 30.3 in ESE 0.9 mph 4 mph 96% 0 in 0 W/m2
00:40 42.6 °F 41.9 °F 30.3 in ESE 0.9 mph 4 mph 97% 0 in 0 W/m2
00:45 42.6 °F 41.9 °F 30.3 in East 2.9 mph 3 mph 97% 0 in 0 W/m2
00:50 42.4 °F 41.7 °F 30.3 in ESE 2 mph 2 mph 97% 0 in 0 W/m2
00:55 42.4 °F 41.7 °F 30.3 in ESE 2.9 mph 4 mph 97% 0 in 0 W/m2
01:00 42.4 °F 41.7 °F 30.3 in East 2.9 mph 4 mph 97% 0 in 0 W/m2
01:05 42.3 °F 41.5 °F 30.3 in ESE 0.9 mph 6 mph 97% 0 in 0 W/m2
01:10 42.3 °F 41.5 °F 30.3 in SSE 2 mph 2 mph 97% 0 in 0 W/m2
01:15 42.3 °F 41.5 °F 30.3 in ESE 2 mph 3 mph 97% 0 in 0 W/m2
01:20 42.3 °F 41.5 °F 30.3 in ENE 0.9 mph 3 mph 97% 0 in 0 W/m2
01:25 42.3 °F 41.5 °F 30.3 in ESE 2 mph 2 mph 97% 0 in 0 W/m2
01:30 42.3 °F 41.5 °F 30.3 in East 0.9 mph 3 mph 97% 0 in 0 W/m2
01:35 42.3 °F 41.5 °F 30.3 in ESE 0.9 mph 2 mph 97% 0 in 0 W/m2
01:40 42.3 °F 41.5 °F 30.3 in ESE 0.9 mph 6 mph 97% 0 in 0 W/m2
01:45 42.1 °F 41.4 °F 30.3 in Calm   4 mph 97% 0 in 0 W/m2
01:50 41.9 °F 41.2 °F 30.3 in Calm   6 mph 97% 0 in 0 W/m2
01:55 41.9 °F 41.2 °F 30.3 in Calm     97% 0 in 0 W/m2
02:00 41.7 °F 41 °F 30.3 in East 0.9 mph 3 mph 97% 0 in 0 W/m2
02:05 41.7 °F 41 °F 30.3 in ESE 2 mph 3 mph 97% 0 in 0 W/m2
02:10 41.7 °F 41 °F 30.3 in Calm   2 mph 97% 0 in 0 W/m2
02:15 41.7 °F 41 °F 30.3 in ESE 2 mph 3 mph 97% 0 in 0 W/m2
02:20 41.7 °F 41 °F 30.3 in Calm     97% 0 in 0 W/m2
02:25 41.7 °F 41 °F 30.3 in Calm   2 mph 97% 0 in 0 W/m2
02:30 41.7 °F 41 °F 30.3 in ESE 0.9 mph 4 mph 97% 0 in 0 W/m2
02:35 41.7 °F 41 °F 30.3 in ESE 2 mph 4 mph 97% 0 in 0 W/m2
02:40 41.7 °F 41 °F 30.3 in East 2 mph 2 mph 97% 0 in 0 W/m2
02:46 41.7 °F 41 °F 30.3 in Calm   2 mph 97% 0 in 0 W/m2
02:51 41.7 °F 41 °F 30.3 in Calm   2 mph 97% 0 in 0 W/m2
02:56 41.7 °F 41 °F 30.3 in East 0.9 mph 2 mph 97% 0 in 0 W/m2
03:01 41.5 °F 40.8 °F 30.3 in ESE 2 mph 2 mph 97% 0 in 0 W/m2
03:06 41.5 °F 40.8 °F 30.3 in Calm     97% 0 in 0 W/m2
03:11 41.5 °F 40.8 °F 30.4 in NE 0.9 mph 1 mph 97% 0 in 0 W/m2
03:16 41.5 °F 40.8 °F 30.4 in Calm   1 mph 97% 0 in 0 W/m2
03:21 41.5 °F 40.8 °F 30.4 in Calm   1 mph 97% 0 in 0 W/m2
03:26 41.5 °F 40.8 °F 30.4 in NE 0.9 mph 2 mph 97% 0 in 0 W/m2
03:31 41.4 °F 40.6 °F 30.4 in NE 0.9 mph 2 mph 97% 0 in 0 W/m2
03:36 41.4 °F 40.6 °F 30.4 in ESE 0.9 mph 2 mph 97% 0 in 0 W/m2
03:41 41.2 °F 40.5 °F 30.4 in ESE 0.9 mph 3 mph 97% 0 in 0 W/m2
03:46 41 °F 40.3 °F 30.4 in ESE 0.9 mph 2 mph 97% 0 in 0 W/m2
04:03 40.8 °F 40.1 °F 30.4 in Calm   2 mph 97% 0 in 0 W/m2
04:08 40.8 °F 40.1 °F 30.4 in East 2 mph 2 mph 97% 0 in 0 W/m2
04:13 40.8 °F 40.1 °F 30.4 in Calm   2 mph 97% 0 in 0 W/m2
04:18 40.8 °F 40.1 °F 30.3 in ESE 2 mph 3 mph 97% 0 in 0 W/m2
04:23 40.8 °F 40.1 °F 30.3 in SE 2 mph 2 mph 97% 0 in 0 W/m2
04:28 40.8 °F 40.1 °F 30.3 in SE 0.9 mph 2 mph 97% 0 in 0 W/m2
04:33 40.6 °F 39.9 °F 30.3 in SE 2 mph 2 mph 97% 0 in 0 W/m2
04:38 40.6 °F 39.9 °F 30.3 in Calm     97% 0 in 0 W/m2
04:43 40.6 °F 39.9 °F 30.3 in East 2 mph 4 mph 97% 0 in 0 W/m2
04:48 40.6 °F 39.9 °F 30.3 in Calm   2 mph 97% 0 in 0 W/m2
04:53 40.6 °F 39.9 °F 30.3 in East 0.9 mph 2 mph 97% 0 in 0 W/m2
04:58 40.6 °F 39.9 °F 30.3 in ESE 0.9 mph 3 mph 97% 0 in 0 W/m2
05:03 40.6 °F 39.9 °F 30.3 in Calm   1 mph 97% 0 in 0 W/m2
05:08 40.5 °F 39.7 °F 30.3 in ESE 0.9 mph 2 mph 97% 0 in 0 W/m2
05:13 40.5 °F 39.7 °F 30.3 in East 0.9 mph 3 mph 97% 0 in 0 W/m2
05:18 40.5 °F 39.7 °F 30.3 in Calm   3 mph 97% 0 in 0 W/m2
05:23 40.5 °F 39.7 °F 30.3 in ESE 2 mph 3 mph 97% 0 in 0 W/m2
05:28 40.5 °F 39.7 °F 30.3 in East 2 mph 3 mph 97% 0 in 0 W/m2
05:33 40.5 °F 39.7 °F 30.3 in ESE 2 mph 3 mph 97% 0 in 0 W/m2
05:38 40.3 °F 39.6 °F 30.3 in ESE 0.9 mph 3 mph 97% 0 in 0 W/m2
05:43 40.3 °F 39.6 °F 30.3 in East 2.9 mph 3 mph 97% 0 in 0 W/m2
05:48 40.3 °F 39.6 °F 30.3 in East 2 mph 3 mph 97% 0 in 0 W/m2
05:53 40.1 °F 39.4 °F 30.3 in East 2 mph 4 mph 97% 0 in 0 W/m2
06:11 39.9 °F 39.2 °F 30.3 in East 2 mph 6 mph 97% 0 in 0 W/m2
06:16 39.9 °F 39.2 °F 30.3 in NNE 2 mph 3 mph 97% 0 in 0 W/m2
06:21 39.9 °F 39.2 °F 30.3 in Calm   6 mph 97% 0 in 0 W/m2
06:26 39.9 °F 39.2 °F 30.3 in Calm     97% 0 in 0 W/m2
06:31 39.9 °F 39.2 °F 30.3 in Calm     97% 0 in 0 W/m2
06:36 39.9 °F 39.2 °F 30.3 in West 0.9 mph 2 mph 97% 0 in 0 W/m2
06:41 39.7 °F 39 °F 30.3 in South 0.9 mph 3 mph 97% 0 in 0 W/m2
06:46 39.9 °F 39.2 °F 30.3 in East 0.9 mph 3 mph 97% 0 in 0 W/m2
06:51 39.7 °F 39 °F 30.3 in East 0.9 mph 4 mph 97% 0 in 0 W/m2
06:56 39.9 °F 39.2 °F 30.3 in Calm     97% 0 in 0 W/m2
07:01 39.7 °F 39 °F 30.3 in ESE 2 mph 4 mph 97% 0 in 0 W/m2
07:06 39.7 °F 39 °F 30.3 in ESE 0.9 mph 3 mph 97% 0 in 0 W/m2
07:11 39.6 °F 38.8 °F 30.3 in Calm   2 mph 97% 0 in 0 W/m2
07:16 39.6 °F 38.8 °F 30.3 in Calm     97% 0 in 0 W/m2
07:21 39.6 °F 38.8 °F 30.3 in Calm   2 mph 97% 0 in 0 W/m2
07:26 39.4 °F 38.7 °F 30.3 in Calm     97% 0 in 0 W/m2
07:31 39.4 °F 38.7 °F 30.3 in Calm   1 mph 97% 0 in 0 W/m2
07:36 39.2 °F 38.5 °F 30.3 in West 0.9 mph 4 mph 97% 0 in 0 W/m2
07:41 39 °F 38.3 °F 30.3 in SW 2 mph 2 mph 97% 0 in 0 W/m2
07:46 38.8 °F 38.1 °F 30.3 in Calm   4 mph 97% 0 in 0 W/m2
07:51 38.8 °F 38.1 °F 30.3 in SE 2 mph 2 mph 97% 0 in 0 W/m2
07:56 38.8 °F 38.1 °F 30.3 in SE 0.9 mph 1 mph 97% 0 in 0 W/m2
08:01 38.8 °F 38.1 °F 30.3 in Calm   1 mph 97% 0 in 0 W/m2
08:06 38.8 °F 38.1 °F 30.3 in WSW 0.9 mph 2 mph 97% 0 in 0 W/m2
08:12 38.8 °F 38.1 °F 30.4 in WNW 2 mph 3 mph 97% 0 in 0 W/m2
08:17 38.7 °F 37.9 °F 30.4 in WNW 2 mph 3 mph 97% 0 in 0 W/m2
08:22 38.7 °F 37.9 °F 30.4 in West 0.9 mph 3 mph 97% 0 in 0 W/m2
08:27 38.7 °F 37.9 °F 30.4 in WSW 2.9 mph 4 mph 97% 0 in 0 W/m2
08:32 38.7 °F 37.9 °F 30.4 in WSW 0.9 mph 2 mph 97% 0 in 0 W/m2
08:37 38.7 °F 37.9 °F 30.4 in WSW 0.9 mph 2 mph 97% 0 in 0 W/m2
08:42 38.7 °F 37.9 °F 30.4 in WSW 2 mph 2 mph 97% 0 in 5 W/m2
08:47 38.7 °F 37.9 °F 30.4 in WNW 2.9 mph 6 mph 97% 0 in 9 W/m2
08:52 38.7 °F 37.9 °F 30.4 in West 0.9 mph 3 mph 97% 0 in 11 W/m2
08:57 38.5 °F 37.8 °F 30.4 in West 2 mph 4 mph 97% 0 in 11 W/m2
09:02 38.5 °F 37.8 °F 30.4 in WNW 0.9 mph 4 mph 97% 0 in 14 W/m2
09:07 38.5 °F 37.8 °F 30.4 in WNW 0.9 mph 1 mph 97% 0 in 14 W/m2
09:12 38.7 °F 38.1 °F 30.4 in WNW 0.9 mph 4 mph 98% 0 in 14 W/m2
09:17 38.7 °F 38.1 °F 30.4 in WNW 2 mph 3 mph 98% 0 in 16 W/m2
09:22 38.7 °F 38.1 °F 30.4 in West 2.9 mph 4 mph 98% 0 in 18 W/m2
09:27 38.7 °F 38.1 °F 30.4 in NW 4 mph 4 mph 98% 0 in 19 W/m2
09:32 38.5 °F 37.8 °F 30.4 in West 2 mph 3 mph 97% 0 in 25 W/m2
09:37 38.5 °F 37.8 °F 30.4 in WNW 2.9 mph 6 mph 97% 0 in 26 W/m2
09:42 38.3 °F 37.6 °F 30.4 in WNW 0.9 mph 3 mph 97% 0 in 25 W/m2
09:47 38.1 °F 37.4 °F 30.4 in Calm   5 mph 97% 0 in 26 W/m2
09:52 38.1 °F 37.4 °F 30.4 in NW 4 mph 4 mph 97% 0 in 25 W/m2
09:57 38.1 °F 37.4 °F 30.4 in WNW 2 mph 7 mph 97% 0 in 42 W/m2
10:02 37.9 °F 37.2 °F 30.4 in West 2 mph 3 mph 97% 0 in 49 W/m2
10:07 37.9 °F 37.2 °F 30.4 in Calm   4 mph 97% 0 in 58 W/m2
10:12 37.9 °F 37.2 °F 30.4 in WNW 4 mph 5 mph 97% 0 in 56 W/m2
10:17 37.9 °F 37.2 °F 30.4 in West 2 mph 3 mph 97% 0 in 47 W/m2
10:22 37.9 °F 37.2 °F 30.4 in WNW 2 mph 6 mph 97% 0 in 46 W/m2
10:28 37.9 °F 37.2 °F 30.4 in WNW 0.9 mph 3 mph 97% 0 in 54 W/m2
10:33 37.9 °F 37.2 °F 30.4 in WSW 0.9 mph 3 mph 97% 0 in 54 W/m2
10:38 37.9 °F 37.2 °F 30.4 in Calm   1 mph 97% 0 in 47 W/m2
10:43 37.9 °F 37.2 °F 30.4 in WNW 2 mph 2 mph 97% 0 in 46 W/m2
10:48 37.9 °F 37.2 °F 30.4 in West 0.9 mph 4 mph 97% 0 in 42 W/m2
10:53 37.9 °F 37.2 °F 30.4 in Calm   2 mph 97% 0 in 46 W/m2
10:58 37.9 °F 37.2 °F 30.4 in WNW 2 mph 4 mph 97% 0 in 53 W/m2
11:03 37.9 °F 37.2 °F 30.4 in West 2.9 mph 3 mph 97% 0 in 40 W/m2
11:08 37.9 °F 37.2 °F 30.4 in WSW 2.9 mph 4 mph 97% 0 in 39 W/m2
11:13 38.1 °F 37.4 °F 30.4 in West 2 mph 3 mph 97% 0 in 35 W/m2
11:18 38.1 °F 37.4 °F 30.4 in West 2 mph 4 mph 97% 0 in 39 W/m2
11:23 38.1 °F 37.4 °F 30.4 in West 2 mph 4 mph 97% 0 in 39 W/m2
11:28 38.3 °F 37.6 °F 30.4 in West 2.9 mph 4 mph 97% 0 in 37 W/m2
11:33 38.5 °F 37.8 °F 30.4 in West 2.9 mph 4 mph 97% 0 in 44 W/m2
11:38 38.5 °F 37.8 °F 30.4 in West 4 mph 6 mph 97% 0 in 47 W/m2
11:43 38.5 °F 37.8 °F 30.4 in West 2.9 mph 4 mph 97% 0 in 54 W/m2
11:48 38.7 °F 37.9 °F 30.4 in WSW 4 mph 4 mph 97% 0 in 49 W/m2
11:53 38.7 °F 37.9 °F 30.4 in West 2 mph 4 mph 97% 0 in 47 W/m2
11:58 38.8 °F 38.1 °F 30.4 in WNW 0.9 mph 3 mph 97% 0 in 46 W/m2
12:03 38.8 °F 38.1 °F 30.4 in West 2 mph 3 mph 97% 0 in 49 W/m2
12:08 39 °F 38.3 °F 30.4 in WSW 0.9 mph 3 mph 97% 0 in 53 W/m2
12:27 39.6 °F 38.8 °F 30.4 in West 2 mph 3 mph 97% 0 in 54 W/m2
12:32 39.6 °F 38.8 °F 30.4 in WNW 2 mph 3 mph 97% 0 in 56 W/m2
12:37 39.7 °F 39 °F 30.4 in WNW 2 mph 3 mph 97% 0 in 49 W/m2
12:42 39.9 °F 39.2 °F 30.4 in West 4 mph 5 mph 97% 0 in 53 W/m2
12:47 39.9 °F 39.2 °F 30.4 in West 2 mph 3 mph 97% 0 in 47 W/m2
12:52 40.1 °F 39.4 °F 30.4 in West 2.9 mph 4 mph 97% 0 in 42 W/m2
12:57 40.3 °F 39.6 °F 30.4 in WSW 2 mph 7 mph 97% 0 in 44 W/m2
13:03 40.3 °F 39.6 °F 30.4 in West 2 mph 2 mph 97% 0 in 54 W/m2
13:08 40.5 °F 39.7 °F 30.4 in West 0.9 mph 5 mph 97% 0 in 93 W/m2
13:13 40.5 °F 39.7 °F 30.4 in West 2 mph 4 mph 97% 0 in 69 W/m2
13:18 40.6 °F 39.9 °F 30.4 in WNW 2 mph 3 mph 97% 0 in 65 W/m2
13:23 40.6 °F 39.9 °F 30.4 in WNW 0.9 mph 2 mph 97% 0 in 69 W/m2
13:28 40.8 °F 40.1 °F 30.4 in Calm   3 mph 97% 0 in 62 W/m2
13:33 41 °F 40.3 °F 30.4 in Calm     97% 0 in 56 W/m2
13:50 41.4 °F 40.3 °F 30.4 in Calm   1 mph 96% 0 in 56 W/m2
13:55 41.4 °F 40.3 °F 30.4 in Calm     96% 0 in 53 W/m2
14:00 41.5 °F 40.5 °F 30.4 in Calm   1 mph 96% 0 in 49 W/m2
14:05 41.7 °F 40.6 °F 30.4 in Calm     96% 0 in 42 W/m2
14:10 41.7 °F 40.6 °F 30.4 in Calm     96% 0 in 40 W/m2
14:15 41.9 °F 40.8 °F 30.4 in Calm     96% 0 in 42 W/m2
14:20 42.1 °F 41 °F 30.4 in Calm     96% 0 in 42 W/m2
14:25 42.1 °F 41 °F 30.4 in Calm     96% 0 in 46 W/m2
14:45 42.3 °F 41 °F 30.4 in Calm     95% 0 in 47 W/m2
14:50 42.4 °F 41.2 °F 30.4 in Calm     95% 0 in 47 W/m2
14:55 42.4 °F 41.2 °F 30.4 in Calm     95% 0 in 42 W/m2
15:00 42.6 °F 41.4 °F 30.4 in Calm     95% 0 in 32 W/m2
15:05 42.6 °F 41.4 °F 30.4 in Calm     95% 0 in 32 W/m2
15:10 42.6 °F 41.4 °F 30.4 in Calm   1 mph 95% 0 in 30 W/m2
15:16 42.6 °F 41.4 °F 30.4 in Calm     95% 0 in 21 W/m2
15:21 42.6 °F 41.4 °F 30.4 in Calm     95% 0 in 21 W/m2
15:26 42.8 °F 41.5 °F 30.4 in Calm     95% 0 in 18 W/m2
15:31 42.8 °F 41.2 °F 30.4 in Calm     94% 0 in 14 W/m2
15:36 42.8 °F 41.2 °F 30.4 in Calm     94% 0 in 12 W/m2
15:41 42.8 °F 41.2 °F 30.4 in Calm     94% 0 in 11 W/m2
15:46 42.8 °F 41.2 °F 30.4 in Calm     94% 0 in 9 W/m2
15:51 42.8 °F 41.2 °F 30.4 in Calm     94% 0 in 7 W/m2
15:56 42.8 °F 41.2 °F 30.4 in Calm     94% 0 in 7 W/m2
16:01 42.6 °F 41 °F 30.4 in Calm     94% 0 in 5 W/m2
16:06 42.6 °F 41 °F 30.4 in Calm     94% 0 in 5 W/m2
16:11 42.6 °F 41.4 °F 30.4 in Calm     95% 0 in 5 W/m2
16:16 42.6 °F 41.4 °F 30.4 in Calm     95% 0 in 0 W/m2
16:21 42.8 °F 41.5 °F 30.4 in Calm     95% 0 in 0 W/m2
16:26 42.6 °F 41.4 °F 30.4 in Calm     95% 0 in 0 W/m2
16:31 42.6 °F 41.4 °F 30.4 in Calm     95% 0 in 0 W/m2
16:36 42.6 °F 41.4 °F 30.4 in NW 0.9 mph 1 mph 95% 0 in 0 W/m2
16:41 42.4 °F 41.2 °F 30.4 in Calm   3 mph 95% 0 in 0 W/m2
16:46 42.4 °F 40.8 °F 30.4 in Calm   3 mph 94% 0 in 0 W/m2
16:51 42.3 °F 41 °F 30.4 in Calm   2 mph 95% 0 in 0 W/m2
16:56 42.3 °F 41 °F 30.4 in Calm   1 mph 95% 0 in 0 W/m2
17:01 42.3 °F 41 °F 30.4 in Calm   2 mph 95% 0 in 0 W/m2
17:06 42.1 °F 40.8 °F 30.4 in Calm   2 mph 95% 0 in 0 W/m2
17:11 42.1 °F 40.8 °F 30.4 in Calm   1 mph 95% 0 in 0 W/m2
17:16 42.1 °F 40.8 °F 30.4 in Calm     95% 0 in 0 W/m2
17:21 42.1 °F 40.8 °F 30.4 in WNW 0.9 mph 2 mph 95% 0 in 0 W/m2
17:26 42.1 °F 40.8 °F 30.4 in Calm     95% 0 in 0 W/m2
17:31 41.9 °F 40.6 °F 30.4 in WNW 0.9 mph 1 mph 95% 0 in 0 W/m2
17:36 41.9 °F 40.6 °F 30.4 in Calm   1 mph 95% 0 in 0 W/m2
17:41 41.7 °F 40.5 °F 30.4 in Calm     95% 0 in 0 W/m2
17:46 41.7 °F 40.5 °F 30.4 in Calm   2 mph 95% 0 in 0 W/m2
17:51 41.7 °F 40.5 °F 30.4 in Calm     95% 0 in 0 W/m2
17:56 41.7 °F 40.5 °F 30.4 in Calm   2 mph 95% 0 in 0 W/m2
18:01 41.7 °F 40.5 °F 30.4 in Calm     95% 0 in 0 W/m2
18:06 41.7 °F 40.5 °F 30.4 in Calm   2 mph 95% 0 in 0 W/m2
18:11 41.5 °F 40.3 °F 30.4 in Calm   1 mph 95% 0 in 0 W/m2
18:16 41.5 °F 40.3 °F 30.4 in Calm     95% 0 in 0 W/m2
18:21 41.5 °F 40.3 °F 30.4 in Calm     95% 0 in 0 W/m2
18:26 41.5 °F 40.3 °F 30.4 in Calm     95% 0 in 0 W/m2
18:31 41.5 °F 40.3 °F 30.4 in WNW 2 mph 2 mph 95% 0 in 0 W/m2
18:36 41.5 °F 40.3 °F 30.4 in Calm   2 mph 95% 0 in 0 W/m2
18:41 41.5 °F 40.3 °F 30.4 in Calm     95% 0 in 0 W/m2
18:46 41.5 °F 40.3 °F 30.4 in Calm   2 mph 95% 0 in 0 W/m2
18:51 41.5 °F 40.3 °F 30.4 in WNW 0.9 mph 2 mph 95% 0 in 0 W/m2
18:56 41.5 °F 40.3 °F 30.4 in Calm     95% 0 in 0 W/m2
19:01 41.5 °F 40.3 °F 30.4 in Calm     95% 0 in 0 W/m2
19:20 41.5 °F 40.3 °F 30.4 in Calm     95% 0 in 0 W/m2
19:25 41.5 °F 40.3 °F 30.4 in Calm     95% 0 in 0 W/m2
19:30 41.5 °F 40.3 °F 30.4 in Calm     95% 0 in 0 W/m2
19:35 41.4 °F 40.1 °F 30.4 in Calm     95% 0 in 0 W/m2
19:40 41.4 °F 40.1 °F 30.4 in Calm     95% 0 in 0 W/m2
19:45 41.4 °F 40.1 °F 30.4 in Calm     95% 0 in 0 W/m2
19:50 41.4 °F 40.1 °F 30.4 in Calm     95% 0 in 0 W/m2
19:55 41.4 °F 40.1 °F 30.4 in Calm     95% 0 in 0 W/m2
20:00 41.4 °F 40.3 °F 30.4 in Calm     96% 0 in 0 W/m2
20:05 41.4 °F 40.1 °F 30.4 in Calm     95% 0 in 0 W/m2
20:10 41.4 °F 40.1 °F 30.4 in Calm     95% 0 in 0 W/m2
20:15 41.4 °F 40.3 °F 30.4 in Calm     96% 0 in 0 W/m2
20:20 41.4 °F 40.3 °F 30.4 in Calm     96% 0 in 0 W/m2
20:25 41.4 °F 40.3 °F 30.4 in Calm   2 mph 96% 0 in 0 W/m2
20:30 41.4 °F 40.3 °F 30.4 in Calm     96% 0 in 0 W/m2
20:35 41.5 °F 40.5 °F 30.4 in Calm     96% 0 in 0 W/m2
20:40 41.5 °F 40.3 °F 30.4 in Calm     95% 0 in 0 W/m2
20:45 41.5 °F 40.3 °F 30.4 in Calm     95% 0 in 0 W/m2
20:50 41.5 °F 40.3 °F 30.4 in Calm   1 mph 95% 0 in 0 W/m2
20:55 41.5 °F 40.3 °F 30.4 in Calm     95% 0 in 0 W/m2
21:00 41.5 °F 40.3 °F 30.4 in Calm     95% 0 in 0 W/m2
21:05 41.5 °F 40.3 °F 30.4 in Calm     95% 0 in 0 W/m2
21:10 41.5 °F 40.3 °F 30.4 in Calm     95% 0 in 0 W/m2
21:15 41.5 °F 40.3 °F 30.4 in Calm     95% 0 in 0 W/m2
21:20 41.5 °F 40.3 °F 30.4 in Calm     95% 0 in 0 W/m2
21:25 41.5 °F 40.3 °F 30.4 in Calm     95% 0 in 0 W/m2
21:30 41.5 °F 40.3 °F 30.4 in Calm     95% 0 in 0 W/m2
21:35 41.5 °F 40.5 °F 30.4 in Calm     96% 0 in 0 W/m2
21:40 41.5 °F 40.5 °F 30.4 in Calm     96% 0 in 0 W/m2
21:45 41.5 °F 40.3 °F 30.4 in Calm     95% 0 in 0 W/m2
21:50 41.5 °F 40.5 °F 30.4 in Calm     96% 0 in 0 W/m2
21:55 41.5 °F 40.3 °F 30.4 in Calm     95% 0 in 0 W/m2
22:00 41.5 °F 40.5 °F 30.4 in WNW 0.9 mph 1 mph 96% 0 in 0 W/m2
22:05 41.5 °F 40.5 °F 30.4 in Calm   2 mph 96% 0 in 0 W/m2
22:10 41.5 °F 40.5 °F 30.4 in Calm     96% 0 in 0 W/m2
22:15 41.5 °F 40.5 °F 30.4 in Calm   1 mph 96% 0 in 0 W/m2
22:20 41.5 °F 40.5 °F 30.4 in Calm     96% 0 in 0 W/m2
22:25 41.5 °F 40.5 °F 30.4 in Calm     96% 0 in 0 W/m2
22:30 41.5 °F 40.5 °F 30.4 in Calm     96% 0 in 0 W/m2
22:35 41.5 °F 40.5 °F 30.4 in WNW 0.9 mph 1 mph 96% 0 in 0 W/m2
22:40 41.5 °F 40.5 °F 30.4 in Calm     96% 0 in 0 W/m2
22:45 41.5 °F 40.5 °F 30.4 in Calm     96% 0 in 0 W/m2
22:50 41.5 °F 40.5 °F 30.4 in Calm     96% 0 in 0 W/m2
22:55 41.5 °F 40.5 °F 30.4 in Calm     96% 0 in 0 W/m2
23:00 41.5 °F 40.5 °F 30.4 in Calm     96% 0 in 0 W/m2
23:05 41.5 °F 40.5 °F 30.4 in Calm     96% 0 in 0 W/m2
23:11 41.5 °F 40.5 °F 30.4 in Calm     96% 0 in 0 W/m2
23:16 41.5 °F 40.5 °F 30.4 in Calm     96% 0 in 0 W/m2
23:21 41.5 °F 40.5 °F 30.4 in Calm     96% 0 in 0 W/m2
23:26 41.4 °F 40.3 °F 30.4 in Calm     96% 0 in 0 W/m2
23:31 41.4 °F 40.3 °F 30.4 in Calm     96% 0 in 0 W/m2
23:36 41.4 °F 40.3 °F 30.4 in Calm     96% 0 in 0 W/m2
23:41 41.4 °F 40.3 °F 30.4 in Calm     96% 0 in 0 W/m2
23:46 41.4 °F 40.3 °F 30.4 in Calm     96% 0 in 0 W/m2
23:51 41.4 °F 40.3 °F 30.4 in Calm     96% 0 in 0 W/m2
23:56 41.5 °F 40.5 °F 30.4 in Calm     96% 0 in 0 W/m2
Juneau County Weather
Compliments of Weather Underground - 2 mb